Accueil
METAR-TAF:

METAR-TAF

Aéroports :

Bolzano, Italie

latitude: 46-28N, longitude: 011-20E, altitude: 262 m

Observation

Le bulletin a été fait il y a 56 minutes, à 16:50 UTC
Vent 7 kt de sud/sud-est, variant entre est/sud-est et sud
Température 23°C
Humidité 47%
Pression 1008 hPa
Visibilité 10 km ou plus
Nuages épars à une hauteur de 7500 ft

METAR: LIPB 191650Z 16007KT 120V190 9999 SCT075 23/11 Q1008

Heure: 19:46 (17:46 UTC)

Prévision

Le bulletin a été fait il y a 46 minutes, à 17:00 UTC
Prévision valable du 19 à 18 UTC au 20 à 18 UTC
Vent 5 kt de direction variable
Visibilité 10 km ou plus
Nuages épars à une hauteur de 8000 ft
Evoluant progressivement
du 20 à 12 UTC au 20 à 14 UTC
Vent 12 kt de sud
Evoluant progressivement
du 20 à 16 UTC au 20 à 18 UTC
Vent 5 kt de direction variable

TAF: LIPB 191700Z 1918/2018 VRB05KT 9999 SCT080 BECMG 2012/2014 18012KT BECMG 2016/2018 VRB05KT

Observations et prévisions météorologiques de plus de 4000 aéroports (messages METAR et TAF).

Les stations disponibles sont représentées par des disques jaunes et rouges sur la carte.

Passer la souris dessus pour voir le nom de la station.

Cliquer dessus pour voir les observations et prévisions météorologiques.

Pour changer de carte: cliquez sur les boutons verts avec une croix noire pour zoomer, sur le bouton vert avec un tiret pour effectuer un zoom arrière, ou sur les flèches vertes pour les cartes adjacentes.


METAR-TAF: